Low Moor, IA (52757)

2:31 AM CST on February 08, 2016 (GMT -0600)
IADOT | | Change Station
CLOSE
Current Station
Personal Weather Station
Location: Low Moor, IA
Elevation: 790 ft
Nearby Weather Stations

Elev 790 ft 41.83 °N, 90.57 °W | Updated 28 minutes ago

Overcast
Overcast
29.0 °F
Feels Like 18 °F
N
15.0
Wind Variable Wind from WNW
Gusts 23.0 mph

Today
High -- | Low -- °F
--% Chance of Precip.
Yesterday
High -- | Low -- °F
Precip. -- in
Pressure 29.76 in
Visibility 9.0 miles
Clouds Mostly Cloudy 2000 ft
Overcast 2700 ft
Windchill 18 °F
Dew Point 25.0 °F
Humidity 83%
Rainfall in
Snow Depth Not available.
7:07 AM 5:25 PM
Waning Crescent, 0% visible
METAR KCWI 080756Z AUTO 30017G23KT 9SM -SN BKN020 OVC027 M01/M03 A2968 RMK AO2 PK WND 31026/0736 RAE07UPB07E26SNB26 SLP078 P0000 T10111033 FZRANO
Pressure 29.76 in
Visibility 9.0 miles
Clouds Mostly Cloudy 2000 ft
Overcast 2700 ft
Windchill 18 °F
Dew Point 25.0 °F
Humidity 83%
Rainfall in
Snow Depth Not available.
7:07 AM 5:25 PM
Waning Crescent, 0% visible
METAR KCWI 080756Z AUTO 30017G23KT 9SM -SN BKN020 OVC027 M01/M03 A2968 RMK AO2 PK WND 31026/0736 RAE07UPB07E26SNB26 SLP078 P0000 T10111033 FZRANO

10-Day Weather Forecast

Almanac

Astronomy

Feb. 08, 2016 Rise Set
Actual Time
Civil Twilight
Nautical Twilight
Astronomical Twilight
Moon
Length of Visible Light
Length of Day
Tomorrow will be .
, % of the Moon is Illuminated

Today's Extremes

State Highs State Lows

Community

WunderPhotos

Upload Photos

1,891,412 photos uploaded!

WunderBlog® & News

Nearby

Air Quality

  Air Quality AQ Index Pollutant
Not available.

Snow Depth

Station Depth Elevation

Earthquake Activity

City Distance Mag. Time & Date
Minimum magnitude displayed is 2.5.

Coastal Water Temperatures

Place Temperature

Stations

Nearby Weather Stations

Station Location Temp. Windchill Dew Point Humidity Wind Precip. Elev Updated Type
                   

Watches & Warnings

There are currently no watches in effect.